sensor_id;sensor_type;location;lat;lon;timestamp;P1;durP1;ratioP1;P2;durP2;ratioP2
23586;SDS011;11971;51.148;4.104;2023-09-12T00:00:24;206.68;;;62.42;;
23586;SDS011;11971;51.148;4.104;2023-09-12T00:02:51;218.73;;;66.35;;
23586;SDS011;11971;51.148;4.104;2023-09-12T00:05:19;210.55;;;63.63;;
23586;SDS011;11971;51.148;4.104;2023-09-12T00:07:46;216.98;;;66.43;;
23586;SDS011;11971;51.148;4.104;2023-09-12T00:10:12;220.18;;;68.55;;
23586;SDS011;11971;51.148;4.104;2023-09-12T00:12:39;223.82;;;67.25;;
23586;SDS011;11971;51.148;4.104;2023-09-12T00:15:06;214.30;;;66.28;;
23586;SDS011;11971;51.148;4.104;2023-09-12T00:17:35;224.13;;;69.07;;
23586;SDS011;11971;51.148;4.104;2023-09-12T00:20:02;233.80;;;70.85;;
23586;SDS011;11971;51.148;4.104;2023-09-12T00:22:31;236.10;;;71.35;;
23586;SDS011;11971;51.148;4.104;2023-09-12T00:24:58;237.55;;;71.78;;
23586;SDS011;11971;51.148;4.104;2023-09-12T00:27:24;250.60;;;73.63;;
23586;SDS011;11971;51.148;4.104;2023-09-12T00:29:51;245.52;;;73.45;;
23586;SDS011;11971;51.148;4.104;2023-09-12T00:32:19;258.52;;;75.20;;
23586;SDS011;11971;51.148;4.104;2023-09-12T00:34:47;248.73;;;73.60;;
23586;SDS011;11971;51.148;4.104;2023-09-12T00:37:14;249.20;;;74.50;;
23586;SDS011;11971;51.148;4.104;2023-09-12T00:39:40;258.92;;;79.50;;
23586;SDS011;11971;51.148;4.104;2023-09-12T00:42:07;253.25;;;78.80;;
23586;SDS011;11971;51.148;4.104;2023-09-12T00:44:34;258.65;;;78.35;;
23586;SDS011;11971;51.148;4.104;2023-09-12T00:47:00;258.83;;;76.57;;
23586;SDS011;11971;51.148;4.104;2023-09-12T00:49:27;246.30;;;77.93;;
23586;SDS011;11971;51.148;4.104;2023-09-12T00:51:56;244.73;;;75.78;;
23586;SDS011;11971;51.148;4.104;2023-09-12T00:54:23;241.52;;;73.68;;
23586;SDS011;11971;51.148;4.104;2023-09-12T00:56:50;239.60;;;75.50;;
23586;SDS011;11971;51.148;4.104;2023-09-12T00:59:16;225.43;;;73.72;;
23586;SDS011;11971;51.148;4.104;2023-09-12T01:01:44;238.35;;;74.97;;
23586;SDS011;11971;51.148;4.104;2023-09-12T01:04:10;244.15;;;76.82;;
23586;SDS011;11971;51.148;4.104;2023-09-12T01:06:38;237.13;;;73.32;;
23586;SDS011;11971;51.148;4.104;2023-09-12T01:09:06;240.25;;;74.22;;
23586;SDS011;11971;51.148;4.104;2023-09-12T01:11:32;227.90;;;73.28;;
23586;SDS011;11971;51.148;4.104;2023-09-12T01:13:59;231.43;;;73.82;;
23586;SDS011;11971;51.148;4.104;2023-09-12T01:16:26;244.50;;;77.05;;
23586;SDS011;11971;51.148;4.104;2023-09-12T01:18:53;240.15;;;74.35;;
23586;SDS011;11971;51.148;4.104;2023-09-12T01:21:31;231.10;;;75.45;;
23586;SDS011;11971;51.148;4.104;2023-09-12T01:24:26;233.27;;;73.50;;
23586;SDS011;11971;51.148;4.104;2023-09-12T01:29:53;237.50;;;76.03;;
23586;SDS011;11971;51.148;4.104;2023-09-12T01:32:22;234.77;;;76.82;;
23586;SDS011;11971;51.148;4.104;2023-09-12T01:34:49;237.23;;;76.53;;
23586;SDS011;11971;51.148;4.104;2023-09-12T01:37:16;229.43;;;74.65;;
23586;SDS011;11971;51.148;4.104;2023-09-12T01:39:47;216.32;;;72.88;;
23586;SDS011;11971;51.148;4.104;2023-09-12T01:42:15;226.18;;;73.85;;
23586;SDS011;11971;51.148;4.104;2023-09-12T01:44:45;226.55;;;76.05;;
23586;SDS011;11971;51.148;4.104;2023-09-12T01:47:12;223.98;;;75.00;;
23586;SDS011;11971;51.148;4.104;2023-09-12T01:49:39;233.57;;;75.35;;
23586;SDS011;11971;51.148;4.104;2023-09-12T01:54:35;219.10;;;71.03;;
23586;SDS011;11971;51.148;4.104;2023-09-12T01:57:03;222.95;;;70.75;;
23586;SDS011;11971;51.148;4.104;2023-09-12T01:59:30;224.13;;;71.13;;
23586;SDS011;11971;51.148;4.104;2023-09-12T02:01:58;228.77;;;71.15;;
23586;SDS011;11971;51.148;4.104;2023-09-12T02:04:24;216.50;;;69.50;;
23586;SDS011;11971;51.148;4.104;2023-09-12T02:06:51;214.20;;;67.93;;
23586;SDS011;11971;51.148;4.104;2023-09-12T02:09:18;208.82;;;67.25;;
23586;SDS011;11971;51.148;4.104;2023-09-12T02:11:45;222.93;;;68.22;;
23586;SDS011;11971;51.148;4.104;2023-09-12T02:14:11;210.98;;;68.30;;
23586;SDS011;11971;51.148;4.104;2023-09-12T02:16:38;217.63;;;67.50;;
23586;SDS011;11971;51.148;4.104;2023-09-12T02:19:06;208.13;;;66.40;;
23586;SDS011;11971;51.148;4.104;2023-09-12T02:21:33;212.68;;;68.47;;
23586;SDS011;11971;51.148;4.104;2023-09-12T02:24:00;215.63;;;68.55;;
23586;SDS011;11971;51.148;4.104;2023-09-12T02:26:26;212.45;;;69.00;;
23586;SDS011;11971;51.148;4.104;2023-09-12T02:28:53;207.90;;;67.35;;
23586;SDS011;11971;51.148;4.104;2023-09-12T02:31:20;215.90;;;67.45;;
23586;SDS011;11971;51.148;4.104;2023-09-12T02:33:46;206.45;;;67.90;;
23586;SDS011;11971;51.148;4.104;2023-09-12T02:36:14;213.07;;;68.88;;
23586;SDS011;11971;51.148;4.104;2023-09-12T02:38:41;217.15;;;68.88;;
23586;SDS011;11971;51.148;4.104;2023-09-12T02:41:08;1788.63;;;156.93;;
23586;SDS011;11971;51.148;4.104;2023-09-12T02:43:35;544.53;;;136.05;;
23586;SDS011;11971;51.148;4.104;2023-09-12T02:46:01;216.18;;;69.47;;
23586;SDS011;11971;51.148;4.104;2023-09-12T02:48:28;693.75;;;106.88;;
23586;SDS011;11971;51.148;4.104;2023-09-12T02:50:55;434.52;;;81.05;;
23586;SDS011;11971;51.148;4.104;2023-09-12T02:53:23;436.20;;;96.45;;
23586;SDS011;11971;51.148;4.104;2023-09-12T02:55:51;218.17;;;68.90;;
23586;SDS011;11971;51.148;4.104;2023-09-12T02:58:17;221.43;;;69.10;;
23586;SDS011;11971;51.148;4.104;2023-09-12T03:00:44;216.73;;;66.50;;
23586;SDS011;11971;51.148;4.104;2023-09-12T03:03:15;280.05;;;74.07;;
23586;SDS011;11971;51.148;4.104;2023-09-12T03:05:42;219.00;;;67.07;;
23586;SDS011;11971;51.148;4.104;2023-09-12T03:08:08;222.88;;;67.53;;
23586;SDS011;11971;51.148;4.104;2023-09-12T03:10:36;229.52;;;68.05;;
23586;SDS011;11971;51.148;4.104;2023-09-12T03:13:03;301.70;;;83.55;;
23586;SDS011;11971;51.148;4.104;2023-09-12T03:15:30;216.65;;;66.07;;
23586;SDS011;11971;51.148;4.104;2023-09-12T03:18:02;390.00;;;73.93;;
23586;SDS011;11971;51.148;4.104;2023-09-12T03:20:29;209.57;;;64.20;;
23586;SDS011;11971;51.148;4.104;2023-09-12T03:22:56;212.88;;;64.93;;
23586;SDS011;11971;51.148;4.104;2023-09-12T03:25:24;221.68;;;66.72;;
23586;SDS011;11971;51.148;4.104;2023-09-12T03:27:52;208.82;;;63.72;;
23586;SDS011;11971;51.148;4.104;2023-09-12T03:30:19;220.68;;;66.43;;
23586;SDS011;11971;51.148;4.104;2023-09-12T03:32:46;217.38;;;66.28;;
23586;SDS011;11971;51.148;4.104;2023-09-12T03:35:13;275.15;;;68.22;;
23586;SDS011;11971;51.148;4.104;2023-09-12T03:37:40;294.40;;;70.63;;
23586;SDS011;11971;51.148;4.104;2023-09-12T03:40:08;257.00;;;68.28;;
23586;SDS011;11971;51.148;4.104;2023-09-12T03:42:36;218.65;;;65.38;;
23586;SDS011;11971;51.148;4.104;2023-09-12T03:45:05;300.90;;;68.95;;
23586;SDS011;11971;51.148;4.104;2023-09-12T03:47:33;216.10;;;64.65;;
23586;SDS011;11971;51.148;4.104;2023-09-12T03:49:59;223.10;;;65.93;;
23586;SDS011;11971;51.148;4.104;2023-09-12T03:52:27;271.52;;;71.25;;
23586;SDS011;11971;51.148;4.104;2023-09-12T03:54:54;211.50;;;65.85;;
23586;SDS011;11971;51.148;4.104;2023-09-12T03:57:20;219.60;;;67.20;;
23586;SDS011;11971;51.148;4.104;2023-09-12T03:59:47;211.70;;;64.35;;
23586;SDS011;11971;51.148;4.104;2023-09-12T04:02:17;224.35;;;66.47;;
23586;SDS011;11971;51.148;4.104;2023-09-12T04:04:44;219.23;;;64.93;;
23586;SDS011;11971;51.148;4.104;2023-09-12T04:07:11;211.93;;;65.50;;
23586;SDS011;11971;51.148;4.104;2023-09-12T04:09:38;208.90;;;64.10;;
23586;SDS011;11971;51.148;4.104;2023-09-12T04:12:06;203.15;;;62.95;;
23586;SDS011;11971;51.148;4.104;2023-09-12T04:14:34;215.65;;;65.30;;
23586;SDS011;11971;51.148;4.104;2023-09-12T04:17:01;306.38;;;69.25;;
23586;SDS011;11971;51.148;4.104;2023-09-12T04:19:29;261.50;;;65.28;;
23586;SDS011;11971;51.148;4.104;2023-09-12T04:21:56;214.32;;;64.93;;
23586;SDS011;11971;51.148;4.104;2023-09-12T04:24:23;213.88;;;64.82;;
23586;SDS011;11971;51.148;4.104;2023-09-12T04:26:50;221.32;;;65.05;;
23586;SDS011;11971;51.148;4.104;2023-09-12T04:29:16;213.80;;;65.88;;
23586;SDS011;11971;51.148;4.104;2023-09-12T04:31:43;216.25;;;65.70;;
23586;SDS011;11971;51.148;4.104;2023-09-12T04:34:10;224.73;;;66.30;;
23586;SDS011;11971;51.148;4.104;2023-09-12T04:36:38;224.82;;;65.40;;
23586;SDS011;11971;51.148;4.104;2023-09-12T04:39:05;210.05;;;65.05;;
23586;SDS011;11971;51.148;4.104;2023-09-12T04:41:31;213.48;;;63.00;;
23586;SDS011;11971;51.148;4.104;2023-09-12T04:43:58;213.07;;;64.43;;
23586;SDS011;11971;51.148;4.104;2023-09-12T04:46:27;218.07;;;65.03;;
23586;SDS011;11971;51.148;4.104;2023-09-12T04:48:54;207.65;;;62.28;;
23586;SDS011;11971;51.148;4.104;2023-09-12T04:51:20;210.15;;;62.50;;
23586;SDS011;11971;51.148;4.104;2023-09-12T04:53:48;212.63;;;62.42;;
23586;SDS011;11971;51.148;4.104;2023-09-12T04:56:16;206.45;;;60.80;;
23586;SDS011;11971;51.148;4.104;2023-09-12T04:58:43;219.35;;;66.07;;
23586;SDS011;11971;51.148;4.104;2023-09-12T05:01:10;230.80;;;67.95;;
23586;SDS011;11971;51.148;4.104;2023-09-12T05:03:37;234.80;;;68.30;;
23586;SDS011;11971;51.148;4.104;2023-09-12T05:06:04;229.32;;;67.47;;
23586;SDS011;11971;51.148;4.104;2023-09-12T05:08:31;231.77;;;67.28;;
23586;SDS011;11971;51.148;4.104;2023-09-12T05:10:59;244.55;;;67.50;;
23586;SDS011;11971;51.148;4.104;2023-09-12T05:13:27;233.40;;;68.55;;
23586;SDS011;11971;51.148;4.104;2023-09-12T05:15:54;261.30;;;66.90;;
23586;SDS011;11971;51.148;4.104;2023-09-12T05:18:22;371.63;;;78.15;;
23586;SDS011;11971;51.148;4.104;2023-09-12T05:20:48;240.80;;;67.45;;
23586;SDS011;11971;51.148;4.104;2023-09-12T05:23:15;468.10;;;67.10;;
23586;SDS011;11971;51.148;4.104;2023-09-12T05:25:42;207.65;;;61.72;;
23586;SDS011;11971;51.148;4.104;2023-09-12T05:28:10;234.05;;;66.18;;
23586;SDS011;11971;51.148;4.104;2023-09-12T05:30:41;224.50;;;64.43;;
23586;SDS011;11971;51.148;4.104;2023-09-12T05:33:07;222.35;;;63.92;;
23586;SDS011;11971;51.148;4.104;2023-09-12T05:35:34;209.50;;;63.03;;
23586;SDS011;11971;51.148;4.104;2023-09-12T05:38:02;227.57;;;64.15;;
23586;SDS011;11971;51.148;4.104;2023-09-12T05:40:29;262.17;;;72.18;;
23586;SDS011;11971;51.148;4.104;2023-09-12T05:42:56;285.48;;;76.20;;
23586;SDS011;11971;51.148;4.104;2023-09-12T05:45:24;282.20;;;75.65;;
23586;SDS011;11971;51.148;4.104;2023-09-12T05:47:51;293.10;;;77.25;;
23586;SDS011;11971;51.148;4.104;2023-09-12T05:50:18;307.95;;;80.03;;
23586;SDS011;11971;51.148;4.104;2023-09-12T05:52:45;318.67;;;81.78;;
23586;SDS011;11971;51.148;4.104;2023-09-12T05:55:11;325.02;;;83.60;;
23586;SDS011;11971;51.148;4.104;2023-09-12T05:57:38;334.35;;;82.57;;
23586;SDS011;11971;51.148;4.104;2023-09-12T06:00:05;323.48;;;82.60;;
23586;SDS011;11971;51.148;4.104;2023-09-12T06:02:36;315.15;;;84.15;;
23586;SDS011;11971;51.148;4.104;2023-09-12T06:05:03;296.20;;;80.85;;
23586;SDS011;11971;51.148;4.104;2023-09-12T06:07:31;300.45;;;79.43;;
23586;SDS011;11971;51.148;4.104;2023-09-12T06:09:58;300.52;;;80.22;;
23586;SDS011;11971;51.148;4.104;2023-09-12T06:12:25;300.30;;;81.00;;
23586;SDS011;11971;51.148;4.104;2023-09-12T06:14:52;309.85;;;82.45;;
23586;SDS011;11971;51.148;4.104;2023-09-12T06:17:20;297.13;;;81.30;;
23586;SDS011;11971;51.148;4.104;2023-09-12T06:19:48;307.00;;;82.13;;
23586;SDS011;11971;51.148;4.104;2023-09-12T06:22:16;292.05;;;80.22;;
23586;SDS011;11971;51.148;4.104;2023-09-12T06:24:43;306.23;;;79.95;;
23586;SDS011;11971;51.148;4.104;2023-09-12T06:27:10;309.92;;;80.50;;
23586;SDS011;11971;51.148;4.104;2023-09-12T06:29:37;295.05;;;79.50;;
23586;SDS011;11971;51.148;4.104;2023-09-12T06:32:04;301.20;;;79.68;;
23586;SDS011;11971;51.148;4.104;2023-09-12T06:34:31;293.00;;;81.40;;
23586;SDS011;11971;51.148;4.104;2023-09-12T06:36:59;293.73;;;80.43;;
23586;SDS011;11971;51.148;4.104;2023-09-12T06:39:26;283.52;;;83.10;;
23586;SDS011;11971;51.148;4.104;2023-09-12T06:41:53;284.90;;;79.10;;
23586;SDS011;11971;51.148;4.104;2023-09-12T06:44:19;287.45;;;79.75;;
23586;SDS011;11971;51.148;4.104;2023-09-12T06:46:46;268.00;;;78.68;;
23586;SDS011;11971;51.148;4.104;2023-09-12T06:49:13;281.75;;;80.22;;
23586;SDS011;11971;51.148;4.104;2023-09-12T06:51:39;271.80;;;79.35;;
23586;SDS011;11971;51.148;4.104;2023-09-12T06:54:07;263.90;;;78.88;;
23586;SDS011;11971;51.148;4.104;2023-09-12T06:56:34;274.63;;;80.13;;
23586;SDS011;11971;51.148;4.104;2023-09-12T06:59:02;262.85;;;77.75;;
23586;SDS011;11971;51.148;4.104;2023-09-12T07:01:29;257.85;;;77.57;;
23586;SDS011;11971;51.148;4.104;2023-09-12T07:03:56;261.88;;;78.80;;
23586;SDS011;11971;51.148;4.104;2023-09-12T07:06:23;245.10;;;73.95;;
23586;SDS011;11971;51.148;4.104;2023-09-12T07:08:49;241.07;;;74.78;;
23586;SDS011;11971;51.148;4.104;2023-09-12T07:11:17;232.95;;;73.47;;
23586;SDS011;11971;51.148;4.104;2023-09-12T07:13:44;238.37;;;72.33;;
23586;SDS011;11971;51.148;4.104;2023-09-12T07:16:11;235.23;;;70.72;;
23586;SDS011;11971;51.148;4.104;2023-09-12T07:18:38;230.55;;;69.50;;
23586;SDS011;11971;51.148;4.104;2023-09-12T07:21:05;223.43;;;67.00;;
23586;SDS011;11971;51.148;4.104;2023-09-12T07:23:32;222.77;;;68.28;;
23586;SDS011;11971;51.148;4.104;2023-09-12T07:25:59;225.40;;;69.72;;
23586;SDS011;11971;51.148;4.104;2023-09-12T07:28:29;222.38;;;69.43;;
23586;SDS011;11971;51.148;4.104;2023-09-12T07:30:57;231.77;;;69.32;;
23586;SDS011;11971;51.148;4.104;2023-09-12T07:33:23;217.38;;;67.57;;
23586;SDS011;11971;51.148;4.104;2023-09-12T07:35:51;215.43;;;65.97;;
23586;SDS011;11971;51.148;4.104;2023-09-12T07:38:20;217.35;;;66.57;;
23586;SDS011;11971;51.148;4.104;2023-09-12T07:40:46;208.60;;;63.70;;
23586;SDS011;11971;51.148;4.104;2023-09-12T07:43:13;210.40;;;64.20;;
23586;SDS011;11971;51.148;4.104;2023-09-12T07:45:41;212.18;;;64.68;;
23586;SDS011;11971;51.148;4.104;2023-09-12T07:48:09;210.65;;;64.75;;
23586;SDS011;11971;51.148;4.104;2023-09-12T07:50:36;216.43;;;64.00;;
23586;SDS011;11971;51.148;4.104;2023-09-12T07:53:03;214.15;;;65.95;;
23586;SDS011;11971;51.148;4.104;2023-09-12T07:55:30;208.32;;;63.22;;
23586;SDS011;11971;51.148;4.104;2023-09-12T07:58:01;211.15;;;63.85;;
23586;SDS011;11971;51.148;4.104;2023-09-12T08:00:28;202.13;;;62.95;;
23586;SDS011;11971;51.148;4.104;2023-09-12T08:02:56;201.75;;;62.90;;
23586;SDS011;11971;51.148;4.104;2023-09-12T08:05:22;194.13;;;59.50;;
23586;SDS011;11971;51.148;4.104;2023-09-12T08:07:49;202.90;;;60.65;;
23586;SDS011;11971;51.148;4.104;2023-09-12T08:10:16;194.43;;;60.63;;
23586;SDS011;11971;51.148;4.104;2023-09-12T08:12:43;200.65;;;61.30;;
23586;SDS011;11971;51.148;4.104;2023-09-12T08:15:10;193.77;;;60.38;;
23586;SDS011;11971;51.148;4.104;2023-09-12T08:17:37;288.88;;;64.57;;
23586;SDS011;11971;51.148;4.104;2023-09-12T08:20:06;192.73;;;60.47;;
23586;SDS011;11971;51.148;4.104;2023-09-12T08:22:35;195.55;;;61.08;;
23586;SDS011;11971;51.148;4.104;2023-09-12T08:25:02;191.90;;;59.03;;
23586;SDS011;11971;51.148;4.104;2023-09-12T08:27:29;191.35;;;60.08;;
23586;SDS011;11971;51.148;4.104;2023-09-12T08:29:56;195.02;;;59.75;;
23586;SDS011;11971;51.148;4.104;2023-09-12T08:32:23;191.70;;;59.50;;
23586;SDS011;11971;51.148;4.104;2023-09-12T08:34:49;185.15;;;58.47;;
23586;SDS011;11971;51.148;4.104;2023-09-12T08:37:17;189.77;;;59.25;;
23586;SDS011;11971;51.148;4.104;2023-09-12T08:39:44;186.68;;;59.40;;
23586;SDS011;11971;51.148;4.104;2023-09-12T08:42:12;191.82;;;59.55;;
23586;SDS011;11971;51.148;4.104;2023-09-12T08:44:39;193.38;;;59.03;;
23586;SDS011;11971;51.148;4.104;2023-09-12T08:47:07;197.00;;;61.58;;
23586;SDS011;11971;51.148;4.104;2023-09-12T08:49:35;198.38;;;61.95;;
23586;SDS011;11971;51.148;4.104;2023-09-12T08:52:02;206.77;;;62.72;;
23586;SDS011;11971;51.148;4.104;2023-09-12T08:54:30;200.93;;;63.30;;
23586;SDS011;11971;51.148;4.104;2023-09-12T08:56:57;197.20;;;61.20;;
23586;SDS011;11971;51.148;4.104;2023-09-12T08:59:24;201.95;;;61.88;;
23586;SDS011;11971;51.148;4.104;2023-09-12T09:01:52;203.25;;;63.25;;
23586;SDS011;11971;51.148;4.104;2023-09-12T09:04:20;199.98;;;61.40;;
23586;SDS011;11971;51.148;4.104;2023-09-12T09:06:48;202.13;;;62.30;;
23586;SDS011;11971;51.148;4.104;2023-09-12T09:09:15;201.75;;;63.38;;
23586;SDS011;11971;51.148;4.104;2023-09-12T09:11:45;195.57;;;60.85;;
23586;SDS011;11971;51.148;4.104;2023-09-12T09:14:12;200.63;;;61.85;;
23586;SDS011;11971;51.148;4.104;2023-09-12T09:16:39;192.60;;;60.15;;
23586;SDS011;11971;51.148;4.104;2023-09-12T09:19:07;204.52;;;61.05;;
23586;SDS011;11971;51.148;4.104;2023-09-12T09:21:35;193.20;;;59.03;;
23586;SDS011;11971;51.148;4.104;2023-09-12T09:24:03;194.48;;;59.88;;
23586;SDS011;11971;51.148;4.104;2023-09-12T09:26:42;191.30;;;58.58;;
23586;SDS011;11971;51.148;4.104;2023-09-12T09:29:13;186.40;;;57.38;;
23586;SDS011;11971;51.148;4.104;2023-09-12T09:31:40;184.15;;;56.80;;
23586;SDS011;11971;51.148;4.104;2023-09-12T09:34:11;183.55;;;56.28;;
23586;SDS011;11971;51.148;4.104;2023-09-12T09:36:41;192.73;;;57.28;;
23586;SDS011;11971;51.148;4.104;2023-09-12T09:39:09;188.43;;;57.60;;
23586;SDS011;11971;51.148;4.104;2023-09-12T09:41:36;183.60;;;56.55;;
23586;SDS011;11971;51.148;4.104;2023-09-12T09:44:04;190.20;;;56.80;;
23586;SDS011;11971;51.148;4.104;2023-09-12T09:46:31;186.32;;;56.17;;
23586;SDS011;11971;51.148;4.104;2023-09-12T09:48:58;194.63;;;58.13;;
23586;SDS011;11971;51.148;4.104;2023-09-12T09:51:25;191.43;;;60.03;;
23586;SDS011;11971;51.148;4.104;2023-09-12T09:53:52;188.95;;;58.60;;
23586;SDS011;11971;51.148;4.104;2023-09-12T09:56:23;187.70;;;58.40;;
23586;SDS011;11971;51.148;4.104;2023-09-12T09:58:51;192.30;;;58.72;;
23586;SDS011;11971;51.148;4.104;2023-09-12T10:01:21;191.88;;;59.63;;
23586;SDS011;11971;51.148;4.104;2023-09-12T10:03:50;190.60;;;58.35;;
23586;SDS011;11971;51.148;4.104;2023-09-12T10:06:17;187.95;;;56.92;;
23586;SDS011;11971;51.148;4.104;2023-09-12T10:08:45;188.63;;;58.17;;
23586;SDS011;11971;51.148;4.104;2023-09-12T10:11:17;185.88;;;57.28;;
23586;SDS011;11971;51.148;4.104;2023-09-12T10:13:46;291.77;;;68.10;;
23586;SDS011;11971;51.148;4.104;2023-09-12T10:16:14;179.63;;;54.65;;
23586;SDS011;11971;51.148;4.104;2023-09-12T10:18:45;181.50;;;55.23;;
23586;SDS011;11971;51.148;4.104;2023-09-12T10:21:16;178.50;;;54.63;;
23586;SDS011;11971;51.148;4.104;2023-09-12T10:23:45;180.88;;;55.83;;
23586;SDS011;11971;51.148;4.104;2023-09-12T10:26:16;179.95;;;55.83;;
23586;SDS011;11971;51.148;4.104;2023-09-12T10:28:43;185.48;;;57.40;;
23586;SDS011;11971;51.148;4.104;2023-09-12T10:31:11;187.73;;;57.35;;
23586;SDS011;11971;51.148;4.104;2023-09-12T10:33:38;179.57;;;55.63;;
23586;SDS011;11971;51.148;4.104;2023-09-12T10:36:08;181.95;;;54.72;;
23586;SDS011;11971;51.148;4.104;2023-09-12T10:38:36;181.55;;;55.83;;
23586;SDS011;11971;51.148;4.104;2023-09-12T10:41:11;177.20;;;54.88;;
23586;SDS011;11971;51.148;4.104;2023-09-12T10:43:39;178.23;;;54.90;;
23586;SDS011;11971;51.148;4.104;2023-09-12T10:46:06;178.45;;;55.08;;
23586;SDS011;11971;51.148;4.104;2023-09-12T10:48:34;179.77;;;55.65;;
23586;SDS011;11971;51.148;4.104;2023-09-12T10:51:01;184.80;;;57.05;;
23586;SDS011;11971;51.148;4.104;2023-09-12T10:53:30;177.73;;;53.05;;
23586;SDS011;11971;51.148;4.104;2023-09-12T10:55:58;177.13;;;54.17;;
23586;SDS011;11971;51.148;4.104;2023-09-12T10:58:26;179.70;;;52.20;;
23586;SDS011;11971;51.148;4.104;2023-09-12T11:03:47;168.90;;;50.30;;
23586;SDS011;11971;51.148;4.104;2023-09-12T11:06:21;179.98;;;52.80;;
23586;SDS011;11971;51.148;4.104;2023-09-12T11:11:45;184.02;;;54.15;;
23586;SDS011;11971;51.148;4.104;2023-09-12T11:14:13;174.23;;;52.65;;
23586;SDS011;11971;51.148;4.104;2023-09-12T11:16:40;167.45;;;50.25;;
23586;SDS011;11971;51.148;4.104;2023-09-12T11:19:15;171.77;;;51.88;;
23586;SDS011;11971;51.148;4.104;2023-09-12T11:21:43;170.45;;;50.47;;
23586;SDS011;11971;51.148;4.104;2023-09-12T11:24:10;233.35;;;58.28;;
23586;SDS011;11971;51.148;4.104;2023-09-12T11:29:35;170.77;;;51.78;;
23586;SDS011;11971;51.148;4.104;2023-09-12T11:32:04;170.05;;;50.80;;
23586;SDS011;11971;51.148;4.104;2023-09-12T11:34:35;166.00;;;49.67;;
23586;SDS011;11971;51.148;4.104;2023-09-12T11:37:03;168.43;;;50.78;;
23586;SDS011;11971;51.148;4.104;2023-09-12T11:39:30;164.15;;;49.30;;
23586;SDS011;11971;51.148;4.104;2023-09-12T11:41:58;167.83;;;49.23;;
23586;SDS011;11971;51.148;4.104;2023-09-12T11:44:26;166.10;;;48.17;;
23586;SDS011;11971;51.148;4.104;2023-09-12T11:46:54;169.90;;;49.60;;
23586;SDS011;11971;51.148;4.104;2023-09-12T11:49:23;162.23;;;47.47;;
23586;SDS011;11971;51.148;4.104;2023-09-12T11:51:51;167.15;;;49.83;;
23586;SDS011;11971;51.148;4.104;2023-09-12T11:54:18;169.10;;;50.93;;
23586;SDS011;11971;51.148;4.104;2023-09-12T11:56:47;170.90;;;51.70;;
23586;SDS011;11971;51.148;4.104;2023-09-12T11:59:14;172.23;;;52.25;;
23586;SDS011;11971;51.148;4.104;2023-09-12T12:01:43;174.40;;;53.25;;
23586;SDS011;11971;51.148;4.104;2023-09-12T12:04:12;174.60;;;52.50;;
23586;SDS011;11971;51.148;4.104;2023-09-12T12:06:38;172.63;;;52.63;;
23586;SDS011;11971;51.148;4.104;2023-09-12T12:09:06;173.45;;;51.83;;
23586;SDS011;11971;51.148;4.104;2023-09-12T12:11:33;170.65;;;51.47;;
23586;SDS011;11971;51.148;4.104;2023-09-12T12:14:08;168.05;;;49.10;;
23586;SDS011;11971;51.148;4.104;2023-09-12T12:16:36;168.68;;;48.58;;
23586;SDS011;11971;51.148;4.104;2023-09-12T12:19:03;168.82;;;50.40;;
23586;SDS011;11971;51.148;4.104;2023-09-12T12:21:31;167.25;;;49.90;;
23586;SDS011;11971;51.148;4.104;2023-09-12T12:23:58;172.77;;;50.85;;
23586;SDS011;11971;51.148;4.104;2023-09-12T12:26:26;172.82;;;51.03;;
23586;SDS011;11971;51.148;4.104;2023-09-12T12:28:52;168.90;;;49.97;;
23586;SDS011;11971;51.148;4.104;2023-09-12T12:31:19;172.93;;;49.88;;
23586;SDS011;11971;51.148;4.104;2023-09-12T12:33:49;171.55;;;51.10;;
23586;SDS011;11971;51.148;4.104;2023-09-12T12:36:16;174.27;;;52.80;;
23586;SDS011;11971;51.148;4.104;2023-09-12T12:38:45;176.75;;;53.63;;
23586;SDS011;11971;51.148;4.104;2023-09-12T12:41:13;175.40;;;53.67;;
23586;SDS011;11971;51.148;4.104;2023-09-12T12:43:40;178.00;;;54.53;;
23586;SDS011;11971;51.148;4.104;2023-09-12T12:46:09;178.80;;;53.85;;
23586;SDS011;11971;51.148;4.104;2023-09-12T12:48:37;178.95;;;54.88;;
23586;SDS011;11971;51.148;4.104;2023-09-12T12:51:12;183.73;;;57.25;;
23586;SDS011;11971;51.148;4.104;2023-09-12T12:53:42;187.57;;;58.55;;
23586;SDS011;11971;51.148;4.104;2023-09-12T12:56:12;185.95;;;57.45;;
23586;SDS011;11971;51.148;4.104;2023-09-12T13:01:11;188.77;;;60.40;;
23586;SDS011;11971;51.148;4.104;2023-09-12T13:03:38;200.07;;;68.07;;
23586;SDS011;11971;51.148;4.104;2023-09-12T13:06:04;205.32;;;69.97;;
23586;SDS011;11971;51.148;4.104;2023-09-12T13:08:32;199.13;;;67.40;;
23586;SDS011;11971;51.148;4.104;2023-09-12T13:11:02;200.77;;;68.18;;
23586;SDS011;11971;51.148;4.104;2023-09-12T13:13:28;206.65;;;67.15;;
23586;SDS011;11971;51.148;4.104;2023-09-12T13:15:55;205.68;;;67.68;;
23586;SDS011;11971;51.148;4.104;2023-09-12T13:18:22;201.10;;;67.03;;
23586;SDS011;11971;51.148;4.104;2023-09-12T13:20:49;204.02;;;67.55;;
23586;SDS011;11971;51.148;4.104;2023-09-12T13:23:15;203.05;;;66.22;;
23586;SDS011;11971;51.148;4.104;2023-09-12T13:25:42;198.45;;;66.60;;
23586;SDS011;11971;51.148;4.104;2023-09-12T13:28:11;199.73;;;65.20;;
23586;SDS011;11971;51.148;4.104;2023-09-12T13:30:37;195.87;;;64.53;;
23586;SDS011;11971;51.148;4.104;2023-09-12T13:33:04;192.35;;;63.70;;
23586;SDS011;11971;51.148;4.104;2023-09-12T13:35:31;189.65;;;62.90;;
23586;SDS011;11971;51.148;4.104;2023-09-12T13:37:58;189.43;;;60.58;;
23586;SDS011;11971;51.148;4.104;2023-09-12T13:40:25;187.77;;;61.40;;
23586;SDS011;11971;51.148;4.104;2023-09-12T13:42:52;190.68;;;62.78;;
23586;SDS011;11971;51.148;4.104;2023-09-12T13:45:21;195.48;;;66.72;;
23586;SDS011;11971;51.148;4.104;2023-09-12T13:47:47;198.18;;;67.45;;
23586;SDS011;11971;51.148;4.104;2023-09-12T13:50:14;195.07;;;64.78;;
23586;SDS011;11971;51.148;4.104;2023-09-12T13:52:42;197.77;;;67.00;;
23586;SDS011;11971;51.148;4.104;2023-09-12T13:55:08;198.20;;;68.30;;
23586;SDS011;11971;51.148;4.104;2023-09-12T13:57:38;205.63;;;68.88;;
23586;SDS011;11971;51.148;4.104;2023-09-12T14:00:06;201.43;;;68.07;;
23586;SDS011;11971;51.148;4.104;2023-09-12T14:02:35;201.37;;;68.33;;
23586;SDS011;11971;51.148;4.104;2023-09-12T14:05:02;196.73;;;65.53;;
23586;SDS011;11971;51.148;4.104;2023-09-12T14:07:29;199.52;;;66.95;;
23586;SDS011;11971;51.148;4.104;2023-09-12T14:09:55;199.98;;;65.38;;
23586;SDS011;11971;51.148;4.104;2023-09-12T14:12:22;197.52;;;64.80;;
23586;SDS011;11971;51.148;4.104;2023-09-12T14:14:50;197.07;;;64.35;;
23586;SDS011;11971;51.148;4.104;2023-09-12T14:17:17;193.50;;;63.55;;
23586;SDS011;11971;51.148;4.104;2023-09-12T14:19:45;192.25;;;61.85;;
23586;SDS011;11971;51.148;4.104;2023-09-12T14:22:12;192.30;;;63.38;;
23586;SDS011;11971;51.148;4.104;2023-09-12T14:24:39;193.77;;;63.17;;
23586;SDS011;11971;51.148;4.104;2023-09-12T14:27:05;189.73;;;62.35;;